createdAt,value
2023-03-23T15:59:09.478Z,69.78
2023-03-23T16:01:37.727Z,69.28
2023-03-23T16:04:22.424Z,70.05
2023-03-23T16:06:51.924Z,69.53
2023-03-23T16:09:20.649Z,69.04
2023-03-23T16:11:47.385Z,68.05
2023-03-23T16:14:14.162Z,69.03
2023-03-23T16:16:50.835Z,68.77
2023-03-23T16:19:20.271Z,69.80
2023-03-23T16:21:46.960Z,69.45
2023-03-23T16:24:13.464Z,69.60
2023-03-23T16:26:40.770Z,69.15
2023-03-23T16:29:22.312Z,69.45
2023-03-23T16:31:55.347Z,69.92
2023-03-23T16:34:21.848Z,70.09
2023-03-23T16:36:48.351Z,70.70
2023-03-23T16:39:18.942Z,70.69
2023-03-23T16:41:45.713Z,70.74
2023-03-23T16:44:12.591Z,71.06
2023-03-23T16:46:39.558Z,71.70
2023-03-23T16:49:06.020Z,72.73
2023-03-23T16:51:32.660Z,71.80
2023-03-23T16:53:59.169Z,72.76
2023-03-23T16:56:25.782Z,72.78
2023-03-23T16:58:52.224Z,72.97
2023-03-23T17:01:19.732Z,73.82
2023-03-23T17:03:46.282Z,73.86
2023-03-23T17:06:12.962Z,74.36
2023-03-23T17:08:39.414Z,73.30
2023-03-23T17:11:06.044Z,73.56
2023-03-23T17:13:32.850Z,74.36
2023-03-23T17:15:59.305Z,74.40
2023-03-23T17:18:25.958Z,74.85
2023-03-23T17:20:53.502Z,75.33
2023-03-23T17:23:20.003Z,76.54
2023-03-23T17:25:47.569Z,76.74
2023-03-23T17:28:14.453Z,77.39
2023-03-23T17:30:42.581Z,76.80
2023-03-23T17:33:09.543Z,77.83
2023-03-23T17:35:36.202Z,77.58
2023-03-23T17:38:02.733Z,77.54
2023-03-23T17:40:29.245Z,77.96
2023-03-23T17:42:55.817Z,79.14
2023-03-23T17:45:22.300Z,78.71
2023-03-23T17:47:48.714Z,79.93
2023-03-23T17:50:15.453Z,80.41
2023-03-23T17:52:43.410Z,81.06
2023-03-23T17:55:11.064Z,80.38
2023-03-23T17:57:37.666Z,80.78
2023-03-23T18:00:08.565Z,80.22
2023-03-23T18:02:36.904Z,81.47
2023-03-23T18:05:03.769Z,82.11
2023-03-23T18:07:30.165Z,82.74
2023-03-23T18:10:00.731Z,82.68
2023-03-23T18:12:27.523Z,82.81
2023-03-23T18:14:58.020Z,84.21
2023-03-23T18:17:24.732Z,84.80
2023-03-23T18:19:51.242Z,85.10
2023-03-23T18:22:17.788Z,84.73
2023-03-23T18:24:44.287Z,85.13
2023-03-23T18:27:10.836Z,85.42
2023-03-23T18:29:37.290Z,85.83
2023-03-23T18:32:03.990Z,87.17
2023-03-23T18:34:31.987Z,88.23
2023-03-23T18:36:58.443Z,89.03
2023-03-23T18:39:24.932Z,89.63
2023-03-23T18:41:51.471Z,89.46
2023-03-23T18:44:17.882Z,90.52
2023-03-23T18:46:44.289Z,89.90
2023-03-23T18:49:10.699Z,89.72
2023-03-23T18:51:37.830Z,91.18
2023-03-23T18:54:04.493Z,91.10
2023-03-23T18:56:30.940Z,91.68
2023-03-23T18:58:57.481Z,93.41
2023-03-23T19:01:23.980Z,93.16
2023-03-23T19:03:50.442Z,94.74
2023-03-23T19:06:20.200Z,94.84
2023-03-23T19:08:48.339Z,94.59
2023-03-23T19:11:16.025Z,95.66
2023-03-23T19:13:53.804Z,94.86
2023-03-23T19:16:25.400Z,96.96
2023-03-23T19:18:51.877Z,96.42
2023-03-23T19:21:21.228Z,93.88
2023-03-23T19:23:51.610Z,97.74
2023-03-23T19:26:23.871Z,98.57
2023-03-23T19:31:22.658Z,98.99
2023-03-23T19:33:49.215Z,98.66
2023-03-23T19:36:18.438Z,98.64
2023-03-23T19:38:44.977Z,98.84
2023-03-23T19:41:12.128Z,100.00
2023-03-23T19:43:38.752Z,100.00
2023-03-23T19:46:05.764Z,100.00
2023-03-23T19:48:33.165Z,100.00
2023-03-23T19:50:59.599Z,100.00
2023-03-23T19:53:27.081Z,100.00
2023-03-23T19:55:53.645Z,100.00
2023-03-23T19:58:20.837Z,100.00
2023-03-23T20:00:48.684Z,100.00
2023-03-23T20:03:16.686Z,100.00
2023-03-23T20:05:44.274Z,100.00
2023-03-23T20:08:11.168Z,99.32
2023-03-23T20:10:38.656Z,100.00
2023-03-23T20:13:07.216Z,100.00
2023-03-23T20:15:34.276Z,100.00
2023-03-23T20:18:01.173Z,100.00
2023-03-23T20:20:28.633Z,100.00
2023-03-23T20:22:57.795Z,100.00
2023-03-23T20:25:25.932Z,100.00
2023-03-23T20:27:52.761Z,100.00
2023-03-23T20:30:20.122Z,99.71
2023-03-23T20:32:46.987Z,98.63
2023-03-23T20:35:14.583Z,96.10
2023-03-23T20:37:41.328Z,93.41
2023-03-23T20:40:13.112Z,92.15
2023-03-23T20:42:43.639Z,91.15
2023-03-23T20:45:12.889Z,88.27
2023-03-23T20:47:40.426Z,87.25
2023-03-23T20:50:09.013Z,86.56
2023-03-23T20:52:36.874Z,85.26
2023-03-23T20:55:06.085Z,84.14
2023-03-23T20:57:33.022Z,83.97
2023-03-23T20:59:59.686Z,82.76
2023-03-23T21:02:29.679Z,82.61
2023-03-23T21:04:58.176Z,82.23
2023-03-23T21:07:27.411Z,80.89
2023-03-23T21:09:53.972Z,80.27
2023-03-23T21:12:20.544Z,79.78
2023-03-23T21:14:47.639Z,79.44
2023-03-23T21:17:14.112Z,78.25
2023-03-23T21:19:41.363Z,77.65
2023-03-23T21:22:09.716Z,77.56
2023-03-23T21:24:37.637Z,77.10
2023-03-23T21:27:12.192Z,76.68
2023-03-23T21:29:40.053Z,77.31
2023-03-23T21:32:08.567Z,76.70
2023-03-23T21:34:35.991Z,76.77
2023-03-23T21:37:02.443Z,76.96
2023-03-23T21:39:28.990Z,76.36
2023-03-23T21:42:01.787Z,76.46
2023-03-23T21:44:30.224Z,76.13
2023-03-23T21:46:56.631Z,76.18
2023-03-23T21:49:23.109Z,76.52
2023-03-23T21:51:50.141Z,76.64
2023-03-23T21:54:17.180Z,77.10
2023-03-23T21:56:47.525Z,77.04
2023-03-23T21:59:14.222Z,77.68
2023-03-23T22:01:40.770Z,78.29
2023-03-23T22:04:19.644Z,78.06
2023-03-23T22:07:24.437Z,77.69
2023-03-23T22:09:57.461Z,78.62
2023-03-23T22:12:30.628Z,79.00
2023-03-23T22:15:11.938Z,79.20
2023-03-23T22:17:39.898Z,79.01
2023-03-23T22:23:34.558Z,79.82
2023-03-23T22:32:27.488Z,80.15
2023-03-23T22:35:21.090Z,79.94
2023-03-23T22:42:07.657Z,79.70
2023-03-23T22:45:31.684Z,79.65
2023-03-23T22:48:34.722Z,79.46
2023-03-23T22:59:21.470Z,79.00
2023-03-23T23:08:38.242Z,79.44
2023-03-23T23:21:01.318Z,79.58
2023-03-23T23:24:12.911Z,79.56
2023-03-23T23:33:58.882Z,79.90
